Timeline UpdatesTrip UpdatesNews PostsPvt PostsTravel TipsAdmin PostsConv PostsFollowed PostsChat RequestsBlog PostsPNR Posts

Disclaimer
Search
 
 
Fri Apr 25, 2014 00:22:53 ISTHomeTrainsΣChainsAtlasPNRForumGalleryNewsFAQTripsMembersLoginFeedback
No Recent News for this Train
Other Trains in the News **new
Latest...
Will be diverted via Malkhedi-Agasod chord line avoiding Bina station from 25th march 2014
Thu Mar 27, 2014 (03:31PM)
⇐ Return Journey: Train# 18478

18477/Kalinga Utkal Express

Mar 27 (3:30PM)
Change Departure Station:
Change Arrival Station:
Post a Train Travel TipPost a Train Travel Tip **new
Post a Comment/Question/Picture/VideoPost a Comment/Question/Picture/Video
Pantry/Catering
✓ Pantry Car Avbl
✓ Catering Avbl
RSA - Rake Sharing
Rake/Coach Composition
Coach Composition:ENG-SLR-GS-GS-A1-B2-B1-S12-S11-S10-PC-S9-S8-S7-S6-S5-S4-S3-S2-S1-GS-SLR. By DJ 132 Entry# 701081
Loco
PURI-NZM: ET WAM-4 / TKD WAP-7 NZM-HW: LDH WDM-3A
News    PNR    Forum    Time-Table    Availability    Fare Chart    Map    Arr/Dep History    Trips    Gallery    ΣChains    X/O    Timeline    
Travel Time: 10h 25m    16 halts    Distance: 578 km    Avg Speed: 55 km/hr
Type: Mail/Express
Zone: ECoR/East Coast
Departs @ 20:55 (Avg 9m late)
Platform# 5
SMTWTFS
Puri/PURI 
Arrives @ 07:20 +1 night (Avg 6m late)
Platform# ???
SMTWTFS
Chakradharpur/CKP 

16 halts. 95 intermediate Stations between Puri and Chakradharpur

Show ALL intermediate Stations  Show Old Time-Table

#CodeStation NameX/OArrivesAvgDepartsAvgHaltPFDay#KmSpeedElevZoneAddress
1PURI»Puri (5)»  -20:55+9510.04912mECoRPuri, Odisha
2SILSakhi Gopal (3)  21:15+1421:16+151m--116.44810mECoRPuri, Odisha
3KURKhurda Road Junction (7)X  21:50+1821:55+185m--143.94525mECoRKhordha, Odisha
4BBSBhubaneswar (4)  22:20+1922:25+195m4162.86740mECoRBhubaneshwar, Odisha
5CTCCuttack (5)  22:50+3022:55+305m1190.77728mECoRCuttack, Odisha
6JJKRJajpur Keonjhar Road (4)  23:51+2123:52+221m--1162.74036mECoRJajpur, Odisha
7BHCBhadrak (4)X  00:58+501:00+72m--2206.48323mECoRBhadrak, Odisha
8SOROSoroX  01:21+1601:22+171m--2235.47214mSERSoro, Odisha
9BLSBalasore (4)X  01:50+1801:55+165m--2268.87019mSERBalasore, Odisha
10BTSBasta (3)X  02:19+1902:20+201m--2296.86916mSERBasta, Odisha
11JERJaleswar (4)X  02:37+1702:38+181m--2316.38313mSERJaleswar, Odisha
12HIJHijli (2)  03:25+1503:26+181m--2381.05048mSERdist - paschim medinipur, West Bengal
13CKUChakulia  04:47+604:48+91m--2448.880126mSERChakulia, Jharkhand
14GTSGhatsila (3)X  05:11+705:12+71m--2479.441103mSEREast Singhbhum, Jharkhand
15TATATatanagar Junction (5)  06:05+306:10+75m32515.560164mSER91-657-2423026, Jharkhand
16SINISini JunctionX  06:37+1206:38+121m--2542.557182mSERNational Highway 33, Jharkhand
17RKSNRajkharsawan Junction  06:54+1306:55+141m--2557.848189mSERWest Singhbhum district, Jharkhand
18CKP•Chakradharpur (3)•X  07:20+607:30+710m--2577.884235mSERChakradharpur (West Singhbhum), Jharkhand
19GOLGoilkera  07:54+1107:55+121m--2611.655333mSERGoilkera, Jharkhand
20MOUManoharpur  08:25+1208:26+131m--2639.164228mSERManoharpur, Jharkhand
21BZRBisra08:50+1508:51+161m--2664.8114224mSERSundargarh, Odisha
22BNDMBondamunda (3)  08:55+1508:56+151m--2672.321213mSERRourkela, Odisha
23ROURourkela Junction (5)X  09:15+1409:30+1415m12678.966198mSERRourkela, Odisha
24GPRaj Gangpur (3)  09:57+1909:58+201m12708.774237mSERRaj Ganpur, Odisha
25BMBBamra (3)  10:26+1910:27+201m--2743.335259mSERBamra PH : 06642-229268, Odisha
26JSGJharsuguda Junction (5)X  11:30+411:40+310m--2779.878236mSERJharsuguda, Odisha
27BRJNBrajrajnagarX  11:49+1111:50+121m--2791.559212mSECRBrajrajnagar, Odisha
28BPHBelpaharX  11:59+1312:00+151m--2800.485235mSECRBelpahar, Odisha
29RIGRaigarh (3)X  12:36+1712:41+175m22851.589220mSECRRaigarh, Chhattisgarh
30KHSKharsia  13:04+2713:05+281m--2885.471259mSECRNational Highway 200, Chhattisgarh
31SKTSakti (4)  13:18+3013:19+311m--2900.874237mSECRJanjgir-Champa, Chhattisgarh
32BUABaradwar  13:31+3313:32+341m--2915.755256mSECRJanjgir-Champa, Chhattisgarh
33CPHChampa Junction (3)  13:49+3613:54+345m22931.265264mSECRNational Highway 200 (07819-245767), Chhattisgarh
34NIANaila  14:04+3614:05+371m--2942.069273mSECRJanjgir, Chhattisgarh
35AKTAkaltara (4)X  14:18+3614:19+371m--2957.032284mSECRDist. Janjgir Champa, Chhattisgarh
36BSPBilaspur Junction (8)  15:10+1215:25+1915m22984.260271mSECRBilaspur, Chhattisgarh
37KGBKargi Road  15:57+2215:58+231m--21016.247327mSECRBilaspur, Chhattisgarh
38BIGBelgahna  16:18+2216:19+241m--21032.049327mSECRBilaspur, Chhattisgarh
39PNDPendra Road  17:25+2717:30+295m921085.861620mSECRBilaspur district, Chhattisgarh
40APRAnuppur Junction (3)X  18:20+3018:25+305m--21136.976487mSECRAnuppur, Madhya Pradesh
41AALAmlaiX  18:35+3418:36+351m--21149.652495mSECRAnuppur, Madhya Pradesh
42BUHBurharX  18:46+3418:47+351m--21158.331494mSECRBurhar, Madhya Pradesh
43SDLShahdolX  19:25+2019:30+215m--21177.864466mSECR, Madhya Pradesh
44BRSBirsinghpur  20:05+2420:06+251m--21215.248461mSECRPali, Madhya Pradesh
45NRZBNowrozabadX  20:15+2420:16+251m--21222.447458mSECRNational Highway 78, Madhya Pradesh
46UMRUmaria (3)  20:45+1720:50+175m221245.060469mSECRUmaria, Madhya Pradesh
47CHDChandia Road (1)X  21:09+1621:10+181m121264.023406mSECRNational Highway 78, Madhya Pradesh
48KMZKatni Murwara  22:55+423:10+1115m--21303.870385mWCRMP 483504 ?, Madhya Pradesh
49DMODamoh (2)  00:43+800:45+102m--31413.078365mWCRDamoh, Madhya Pradesh
50PHAPatharia  01:05+1401:07+142m--31439.161382mWCRState Highway 14, Madhya Pradesh
51SGOSaugor (2)X  01:57+1702:00+193m--31490.155519mWCRMP 470001Madhya pradesh, Madhya Pradesh
52KYEKhurai (5)XO  02:58+1103:00+132m--31542.916439mWCRKhurai, Madhya Pradesh
53MAKRMalkheri Junction (2)  04:05+104:07+22m--31560.161421mWCRGuna, Madhya Pradesh
54LARLalitpur (3)X  05:09+1005:10+201m331623.2114373mNCRLalitpur, Uttar Pradesh
55TBTTalbahat (4)  05:31+2405:33+272m--31663.271314mNCRKhaniyadhana Station Rd, Madhya Pradesh
56BABBabina (3)XO  05:54+2905:55+311m131688.138285mNCRBabina, Uttar Pradesh
57JHSJhansi Junction (7)  06:35+2506:43+328m431713.665259mNCRJhansi, Uttar Pradesh
58DAADatia (2)  07:06+3407:07+391m--31738.683264mNCRDatia, Madhya Pradesh
59DBADabra (3)X  07:29+4207:30+481m131769.039204mNCRDabra(District-Gwalior), Madhya Pradesh
60GWLGwalior Junction (4)X  08:35+3408:40+365m231811.383214mNCRGwalior, Madhya Pradesh
61MRAMorena (3)  09:08+4309:09+441m231849.867176mNCRMorena, Madhya Pradesh
62DHODholpur Junction (3)X  09:33+4209:34+441m131876.744177mNCRDholpur, Rajasthan
63AGCAgra Cantt. (6)X  10:45+3310:53+358m331929.324174mNCRAgra, Uttar Pradesh
64RKMRaja Ki Mandi (4)  11:03+3611:04+371m131933.369170mNCRAgra, Uttar Pradesh
65MTJMathura Junction (10)X  11:47+4111:52+425m231983.069179mNCRMathura, Uttar Pradesh
66FDBFaridabad (4)X  13:30+3413:31+361m232096.137206mNRFaridabad, Haryana
67NZMDelhi Hazrat Nizamuddin (7)XO14:05+4014:35+4030m132116.939209mNRNizamuddin East/Sarai KaleKhan Bus Terminal, Delhi NCT
68GZBGhaziabad Junction (6)  15:11+4815:13+492m132140.367217mNRGhaziabad, Uttar Pradesh
69MTCMeerut City Junction (6)  15:55+5816:00+575m132187.664229mNRMeerut, Uttar Pradesh
70MOZMuzaffarnagar (3)  16:52+1:0016:53+1:021m132243.218247mNRMuzaffarNagar, Uttar Pradesh
71DBDDeoband (2)X  18:11+2518:12+261m132267.234258mNRSaharanpur, Uttar Pradesh
72TPZTapri Junction (2)  19:01+1519:02+151m232294.955274mNRTapri -Saharanpur, Uttar Pradesh
73RKRoorkee (3)X  19:37+2119:38+231m332326.952264mNRRoorkee - 247667, Uttarakhand
74HWHaridwar Junction (9)  20:30+24-232371.6-294mNRHaridwar, Uttarakhand
Scroll to Top
Scroll to Bottom